sensor_id;sensor_type;location;lat;lon;timestamp;P1;durP1;ratioP1;P2;durP2;ratioP2
70342;SDS011;57767;42.068;24.752;2023-02-28T00:00:08;25.67;;;8.73;;
70342;SDS011;57767;42.068;24.752;2023-02-28T00:01:12;32.15;;;9.63;;
70342;SDS011;57767;42.068;24.752;2023-02-28T00:02:15;32.47;;;10.00;;
70342;SDS011;57767;42.068;24.752;2023-02-28T00:03:19;22.17;;;7.03;;
70342;SDS011;57767;42.068;24.752;2023-02-28T00:04:20;24.13;;;8.60;;
70342;SDS011;57767;42.068;24.752;2023-02-28T00:05:23;25.77;;;8.65;;
70342;SDS011;57767;42.068;24.752;2023-02-28T00:06:26;23.30;;;7.90;;
70342;SDS011;57767;42.068;24.752;2023-02-28T00:07:29;28.30;;;8.95;;
70342;SDS011;57767;42.068;24.752;2023-02-28T00:08:31;24.90;;;7.30;;
70342;SDS011;57767;42.068;24.752;2023-02-28T00:09:33;22.35;;;7.15;;
70342;SDS011;57767;42.068;24.752;2023-02-28T00:10:35;27.45;;;6.75;;
70342;SDS011;57767;42.068;24.752;2023-02-28T00:11:37;22.92;;;6.78;;
70342;SDS011;57767;42.068;24.752;2023-02-28T00:12:39;19.90;;;7.15;;
70342;SDS011;57767;42.068;24.752;2023-02-28T00:13:42;32.22;;;6.85;;
70342;SDS011;57767;42.068;24.752;2023-02-28T00:14:48;27.77;;;6.45;;
70342;SDS011;57767;42.068;24.752;2023-02-28T00:15:58;28.35;;;6.70;;
70342;SDS011;57767;42.068;24.752;2023-02-28T00:17:01;28.73;;;6.43;;
70342;SDS011;57767;42.068;24.752;2023-02-28T00:18:03;26.75;;;6.15;;
70342;SDS011;57767;42.068;24.752;2023-02-28T00:19:05;28.52;;;6.47;;
70342;SDS011;57767;42.068;24.752;2023-02-28T00:20:07;29.10;;;7.85;;
70342;SDS011;57767;42.068;24.752;2023-02-28T00:21:11;30.17;;;9.32;;
70342;SDS011;57767;42.068;24.752;2023-02-28T00:22:13;32.17;;;9.70;;
70342;SDS011;57767;42.068;24.752;2023-02-28T00:23:14;29.52;;;9.70;;
70342;SDS011;57767;42.068;24.752;2023-02-28T00:24:16;25.75;;;9.45;;
70342;SDS011;57767;42.068;24.752;2023-02-28T00:25:19;28.92;;;10.93;;
70342;SDS011;57767;42.068;24.752;2023-02-28T00:26:22;29.58;;;10.80;;
70342;SDS011;57767;42.068;24.752;2023-02-28T00:27:24;23.38;;;11.65;;
70342;SDS011;57767;42.068;24.752;2023-02-28T00:28:26;34.70;;;15.23;;
70342;SDS011;57767;42.068;24.752;2023-02-28T00:29:28;32.50;;;16.13;;
70342;SDS011;57767;42.068;24.752;2023-02-28T00:30:29;28.38;;;13.65;;
70342;SDS011;57767;42.068;24.752;2023-02-28T00:31:31;27.92;;;13.35;;
70342;SDS011;57767;42.068;24.752;2023-02-28T00:32:33;26.98;;;13.40;;
70342;SDS011;57767;42.068;24.752;2023-02-28T00:33:35;36.00;;;12.38;;
70342;SDS011;57767;42.068;24.752;2023-02-28T00:34:37;34.97;;;11.82;;
70342;SDS011;57767;42.068;24.752;2023-02-28T00:35:39;30.25;;;10.07;;
70342;SDS011;57767;42.068;24.752;2023-02-28T00:36:41;30.90;;;8.05;;
70342;SDS011;57767;42.068;24.752;2023-02-28T00:37:47;27.25;;;7.93;;
70342;SDS011;57767;42.068;24.752;2023-02-28T00:38:49;25.27;;;6.80;;
70342;SDS011;57767;42.068;24.752;2023-02-28T00:39:51;28.75;;;6.78;;
70342;SDS011;57767;42.068;24.752;2023-02-28T00:40:52;24.45;;;7.30;;
70342;SDS011;57767;42.068;24.752;2023-02-28T00:41:54;25.73;;;7.43;;
70342;SDS011;57767;42.068;24.752;2023-02-28T00:42:56;32.50;;;7.90;;
70342;SDS011;57767;42.068;24.752;2023-02-28T00:43:58;28.08;;;7.65;;
70342;SDS011;57767;42.068;24.752;2023-02-28T00:44:59;27.05;;;6.93;;
70342;SDS011;57767;42.068;24.752;2023-02-28T00:46:01;23.48;;;6.78;;
70342;SDS011;57767;42.068;24.752;2023-02-28T00:47:03;24.17;;;7.22;;
70342;SDS011;57767;42.068;24.752;2023-02-28T00:48:05;24.27;;;7.40;;
70342;SDS011;57767;42.068;24.752;2023-02-28T00:49:07;25.55;;;7.15;;
70342;SDS011;57767;42.068;24.752;2023-02-28T00:50:09;26.02;;;6.38;;
70342;SDS011;57767;42.068;24.752;2023-02-28T00:51:11;21.10;;;6.00;;
70342;SDS011;57767;42.068;24.752;2023-02-28T00:52:13;22.58;;;5.38;;
70342;SDS011;57767;42.068;24.752;2023-02-28T00:53:15;25.27;;;4.93;;
70342;SDS011;57767;42.068;24.752;2023-02-28T00:54:17;22.58;;;4.95;;
70342;SDS011;57767;42.068;24.752;2023-02-28T00:55:19;27.13;;;5.53;;
70342;SDS011;57767;42.068;24.752;2023-02-28T00:56:21;18.48;;;4.50;;
70342;SDS011;57767;42.068;24.752;2023-02-28T00:57:23;28.23;;;5.00;;
70342;SDS011;57767;42.068;24.752;2023-02-28T00:58:25;26.27;;;5.25;;
70342;SDS011;57767;42.068;24.752;2023-02-28T00:59:26;28.23;;;5.40;;
70342;SDS011;57767;42.068;24.752;2023-02-28T01:00:28;29.98;;;5.82;;
70342;SDS011;57767;42.068;24.752;2023-02-28T01:01:30;22.58;;;4.95;;
70342;SDS011;57767;42.068;24.752;2023-02-28T01:02:32;33.78;;;5.60;;
70342;SDS011;57767;42.068;24.752;2023-02-28T01:03:34;23.27;;;5.15;;
70342;SDS011;57767;42.068;24.752;2023-02-28T01:04:36;31.60;;;5.95;;
70342;SDS011;57767;42.068;24.752;2023-02-28T01:05:38;21.50;;;5.80;;
70342;SDS011;57767;42.068;24.752;2023-02-28T01:06:40;21.23;;;5.70;;
70342;SDS011;57767;42.068;24.752;2023-02-28T01:07:42;23.20;;;5.88;;
70342;SDS011;57767;42.068;24.752;2023-02-28T01:08:44;29.85;;;6.15;;
70342;SDS011;57767;42.068;24.752;2023-02-28T01:09:46;28.40;;;5.82;;
70342;SDS011;57767;42.068;24.752;2023-02-28T01:10:47;29.67;;;6.22;;
70342;SDS011;57767;42.068;24.752;2023-02-28T01:11:49;31.52;;;6.68;;
70342;SDS011;57767;42.068;24.752;2023-02-28T01:12:51;26.73;;;6.53;;
70342;SDS011;57767;42.068;24.752;2023-02-28T01:13:53;29.35;;;6.95;;
70342;SDS011;57767;42.068;24.752;2023-02-28T01:14:54;19.52;;;6.40;;
70342;SDS011;57767;42.068;24.752;2023-02-28T01:15:56;28.00;;;6.85;;
70342;SDS011;57767;42.068;24.752;2023-02-28T01:16:58;19.80;;;5.43;;
70342;SDS011;57767;42.068;24.752;2023-02-28T01:18:00;19.23;;;5.53;;
70342;SDS011;57767;42.068;24.752;2023-02-28T01:19:02;25.58;;;5.60;;
70342;SDS011;57767;42.068;24.752;2023-02-28T01:20:04;25.85;;;5.15;;
70342;SDS011;57767;42.068;24.752;2023-02-28T01:21:07;26.67;;;5.38;;
70342;SDS011;57767;42.068;24.752;2023-02-28T01:22:10;23.42;;;6.40;;
70342;SDS011;57767;42.068;24.752;2023-02-28T01:23:12;19.83;;;5.97;;
70342;SDS011;57767;42.068;24.752;2023-02-28T01:24:14;33.05;;;6.82;;
70342;SDS011;57767;42.068;24.752;2023-02-28T01:25:15;22.55;;;6.05;;
70342;SDS011;57767;42.068;24.752;2023-02-28T01:26:19;27.05;;;5.57;;
70342;SDS011;57767;42.068;24.752;2023-02-28T01:27:23;25.08;;;5.38;;
70342;SDS011;57767;42.068;24.752;2023-02-28T01:28:25;24.08;;;5.78;;
70342;SDS011;57767;42.068;24.752;2023-02-28T01:29:26;25.35;;;8.25;;
70342;SDS011;57767;42.068;24.752;2023-02-28T01:30:28;33.38;;;8.20;;
70342;SDS011;57767;42.068;24.752;2023-02-28T01:31:30;31.25;;;7.93;;
70342;SDS011;57767;42.068;24.752;2023-02-28T01:32:32;26.33;;;8.30;;
70342;SDS011;57767;42.068;24.752;2023-02-28T01:33:34;31.13;;;9.23;;
70342;SDS011;57767;42.068;24.752;2023-02-28T01:34:37;27.55;;;8.48;;
70342;SDS011;57767;42.068;24.752;2023-02-28T01:35:38;25.80;;;8.43;;
70342;SDS011;57767;42.068;24.752;2023-02-28T01:36:40;23.40;;;8.25;;
70342;SDS011;57767;42.068;24.752;2023-02-28T01:37:42;25.85;;;8.93;;
70342;SDS011;57767;42.068;24.752;2023-02-28T01:38:44;21.50;;;8.60;;
70342;SDS011;57767;42.068;24.752;2023-02-28T01:39:46;23.52;;;8.35;;
70342;SDS011;57767;42.068;24.752;2023-02-28T01:40:48;22.75;;;7.90;;
70342;SDS011;57767;42.068;24.752;2023-02-28T01:41:50;32.38;;;9.52;;
70342;SDS011;57767;42.068;24.752;2023-02-28T01:42:52;31.52;;;8.40;;
70342;SDS011;57767;42.068;24.752;2023-02-28T01:45:00;31.92;;;9.52;;
70342;SDS011;57767;42.068;24.752;2023-02-28T01:46:29;31.45;;;10.18;;
70342;SDS011;57767;42.068;24.752;2023-02-28T01:47:36;29.85;;;9.40;;
70342;SDS011;57767;42.068;24.752;2023-02-28T01:49:54;32.95;;;10.32;;
70342;SDS011;57767;42.068;24.752;2023-02-28T01:50:56;30.38;;;10.27;;
70342;SDS011;57767;42.068;24.752;2023-02-28T01:52:01;32.03;;;10.65;;
70342;SDS011;57767;42.068;24.752;2023-02-28T01:53:04;25.17;;;9.80;;
70342;SDS011;57767;42.068;24.752;2023-02-28T01:54:11;28.38;;;9.65;;
70342;SDS011;57767;42.068;24.752;2023-02-28T01:55:17;26.17;;;8.55;;
70342;SDS011;57767;42.068;24.752;2023-02-28T01:56:24;20.38;;;7.30;;
70342;SDS011;57767;42.068;24.752;2023-02-28T01:57:32;30.37;;;9.13;;
70342;SDS011;57767;42.068;24.752;2023-02-28T01:58:39;24.00;;;8.75;;
70342;SDS011;57767;42.068;24.752;2023-02-28T01:59:42;26.05;;;8.63;;
70342;SDS011;57767;42.068;24.752;2023-02-28T02:00:47;24.98;;;8.63;;
70342;SDS011;57767;42.068;24.752;2023-02-28T02:01:50;25.83;;;8.00;;
70342;SDS011;57767;42.068;24.752;2023-02-28T02:02:56;25.13;;;9.57;;
70342;SDS011;57767;42.068;24.752;2023-02-28T02:04:01;20.05;;;7.38;;
70342;SDS011;57767;42.068;24.752;2023-02-28T02:05:09;32.50;;;8.88;;
70342;SDS011;57767;42.068;24.752;2023-02-28T02:06:13;27.88;;;7.50;;
70342;SDS011;57767;42.068;24.752;2023-02-28T02:07:15;26.73;;;7.80;;
70342;SDS011;57767;42.068;24.752;2023-02-28T02:08:25;18.23;;;6.75;;
70342;SDS011;57767;42.068;24.752;2023-02-28T02:09:29;22.20;;;9.00;;
70342;SDS011;57767;42.068;24.752;2023-02-28T02:11:33;24.63;;;6.88;;
70342;SDS011;57767;42.068;24.752;2023-02-28T02:15:15;31.83;;;7.05;;
70342;SDS011;57767;42.068;24.752;2023-02-28T02:17:48;18.67;;;6.90;;
70342;SDS011;57767;42.068;24.752;2023-02-28T02:26:09;22.10;;;5.60;;
70342;SDS011;57767;42.068;24.752;2023-02-28T02:32:38;20.75;;;6.07;;
70342;SDS011;57767;42.068;24.752;2023-02-28T02:36:38;20.35;;;5.70;;
70342;SDS011;57767;42.068;24.752;2023-02-28T02:38:11;25.05;;;6.32;;
70342;SDS011;57767;42.068;24.752;2023-02-28T02:40:56;25.00;;;6.72;;
70342;SDS011;57767;42.068;24.752;2023-02-28T02:42:09;22.77;;;7.30;;
70342;SDS011;57767;42.068;24.752;2023-02-28T02:43:33;19.13;;;5.70;;
70342;SDS011;57767;42.068;24.752;2023-02-28T02:44:42;17.95;;;6.15;;
70342;SDS011;57767;42.068;24.752;2023-02-28T02:46:55;18.80;;;5.95;;
70342;SDS011;57767;42.068;24.752;2023-02-28T02:48:03;19.85;;;6.30;;
70342;SDS011;57767;42.068;24.752;2023-02-28T02:49:15;23.50;;;7.28;;
70342;SDS011;57767;42.068;24.752;2023-02-28T02:51:30;18.45;;;6.20;;
70342;SDS011;57767;42.068;24.752;2023-02-28T02:52:36;15.50;;;5.82;;
70342;SDS011;57767;42.068;24.752;2023-02-28T02:53:47;19.15;;;7.03;;
70342;SDS011;57767;42.068;24.752;2023-02-28T02:54:54;33.58;;;7.15;;
70342;SDS011;57767;42.068;24.752;2023-02-28T02:55:59;22.38;;;6.65;;
70342;SDS011;57767;42.068;24.752;2023-02-28T02:57:04;18.30;;;8.23;;
70342;SDS011;57767;42.068;24.752;2023-02-28T02:58:16;20.50;;;7.47;;
70342;SDS011;57767;42.068;24.752;2023-02-28T02:59:20;22.55;;;9.18;;
70342;SDS011;57767;42.068;24.752;2023-02-28T03:00:26;19.88;;;7.72;;
70342;SDS011;57767;42.068;24.752;2023-02-28T03:01:33;24.55;;;8.80;;
70342;SDS011;57767;42.068;24.752;2023-02-28T03:02:38;23.95;;;8.18;;
70342;SDS011;57767;42.068;24.752;2023-02-28T03:03:42;29.75;;;9.02;;
70342;SDS011;57767;42.068;24.752;2023-02-28T03:04:46;25.30;;;9.27;;
70342;SDS011;57767;42.068;24.752;2023-02-28T03:05:53;17.65;;;7.45;;
70342;SDS011;57767;42.068;24.752;2023-02-28T03:06:55;26.40;;;8.63;;
70342;SDS011;57767;42.068;24.752;2023-02-28T03:07:56;21.45;;;8.07;;
70342;SDS011;57767;42.068;24.752;2023-02-28T03:08:59;21.58;;;9.32;;
70342;SDS011;57767;42.068;24.752;2023-02-28T03:10:01;18.73;;;8.05;;
70342;SDS011;57767;42.068;24.752;2023-02-28T03:11:07;21.17;;;8.70;;
70342;SDS011;57767;42.068;24.752;2023-02-28T03:12:16;20.00;;;7.65;;
70342;SDS011;57767;42.068;24.752;2023-02-28T03:15:36;21.23;;;9.38;;
70342;SDS011;57767;42.068;24.752;2023-02-28T03:23:17;20.42;;;9.35;;
70342;SDS011;57767;42.068;24.752;2023-02-28T03:24:25;22.65;;;9.02;;
70342;SDS011;57767;42.068;24.752;2023-02-28T03:30:16;23.10;;;9.77;;
70342;SDS011;57767;42.068;24.752;2023-02-28T03:34:12;29.15;;;10.27;;
70342;SDS011;57767;42.068;24.752;2023-02-28T03:35:23;19.92;;;9.68;;
70342;SDS011;57767;42.068;24.752;2023-02-28T03:36:29;18.98;;;9.00;;
70342;SDS011;57767;42.068;24.752;2023-02-28T03:37:33;20.75;;;10.95;;
70342;SDS011;57767;42.068;24.752;2023-02-28T03:40:03;23.30;;;9.35;;
70342;SDS011;57767;42.068;24.752;2023-02-28T03:41:12;20.70;;;10.27;;
70342;SDS011;57767;42.068;24.752;2023-02-28T03:42:19;18.13;;;10.48;;
70342;SDS011;57767;42.068;24.752;2023-02-28T03:43:26;19.67;;;9.55;;
70342;SDS011;57767;42.068;24.752;2023-02-28T03:44:34;19.55;;;10.05;;
70342;SDS011;57767;42.068;24.752;2023-02-28T03:45:58;26.75;;;12.57;;
70342;SDS011;57767;42.068;24.752;2023-02-28T03:47:04;18.90;;;9.40;;
70342;SDS011;57767;42.068;24.752;2023-02-28T03:49:24;21.55;;;10.57;;
70342;SDS011;57767;42.068;24.752;2023-02-28T03:50:35;23.85;;;10.20;;
70342;SDS011;57767;42.068;24.752;2023-02-28T03:51:40;26.33;;;11.55;;
70342;SDS011;57767;42.068;24.752;2023-02-28T03:54:22;29.48;;;12.82;;
70342;SDS011;57767;42.068;24.752;2023-02-28T03:55:39;19.83;;;9.93;;
70342;SDS011;57767;42.068;24.752;2023-02-28T03:58:07;20.70;;;11.45;;
70342;SDS011;57767;42.068;24.752;2023-02-28T03:59:28;23.20;;;10.48;;
70342;SDS011;57767;42.068;24.752;2023-02-28T04:00:44;22.98;;;12.77;;
70342;SDS011;57767;42.068;24.752;2023-02-28T04:01:49;32.88;;;11.25;;
70342;SDS011;57767;42.068;24.752;2023-02-28T04:02:53;19.52;;;10.38;;
70342;SDS011;57767;42.068;24.752;2023-02-28T04:03:55;23.83;;;11.20;;
70342;SDS011;57767;42.068;24.752;2023-02-28T04:04:57;22.30;;;11.25;;
70342;SDS011;57767;42.068;24.752;2023-02-28T04:05:59;21.35;;;11.57;;
70342;SDS011;57767;42.068;24.752;2023-02-28T04:07:02;26.58;;;14.20;;
70342;SDS011;57767;42.068;24.752;2023-02-28T04:08:08;28.73;;;13.70;;
70342;SDS011;57767;42.068;24.752;2023-02-28T04:09:11;25.67;;;13.73;;
70342;SDS011;57767;42.068;24.752;2023-02-28T04:10:15;25.50;;;12.13;;
70342;SDS011;57767;42.068;24.752;2023-02-28T04:11:22;21.88;;;11.30;;
70342;SDS011;57767;42.068;24.752;2023-02-28T04:12:29;26.38;;;12.35;;
70342;SDS011;57767;42.068;24.752;2023-02-28T04:13:31;28.73;;;12.32;;
70342;SDS011;57767;42.068;24.752;2023-02-28T04:14:32;28.92;;;13.13;;
70342;SDS011;57767;42.068;24.752;2023-02-28T04:15:34;24.98;;;14.60;;
70342;SDS011;57767;42.068;24.752;2023-02-28T04:16:37;23.15;;;11.95;;
70342;SDS011;57767;42.068;24.752;2023-02-28T04:17:41;21.95;;;11.48;;
70342;SDS011;57767;42.068;24.752;2023-02-28T04:18:43;23.05;;;13.45;;
70342;SDS011;57767;42.068;24.752;2023-02-28T04:19:45;27.80;;;14.30;;
70342;SDS011;57767;42.068;24.752;2023-02-28T04:20:47;24.50;;;14.50;;
70342;SDS011;57767;42.068;24.752;2023-02-28T04:21:49;25.88;;;14.10;;
70342;SDS011;57767;42.068;24.752;2023-02-28T04:22:53;28.60;;;14.65;;
70342;SDS011;57767;42.068;24.752;2023-02-28T04:23:54;22.88;;;13.85;;
70342;SDS011;57767;42.068;24.752;2023-02-28T04:24:57;24.40;;;14.00;;
70342;SDS011;57767;42.068;24.752;2023-02-28T04:25:59;22.45;;;13.85;;
70342;SDS011;57767;42.068;24.752;2023-02-28T04:27:00;27.42;;;15.02;;
70342;SDS011;57767;42.068;24.752;2023-02-28T04:28:02;25.13;;;13.25;;
70342;SDS011;57767;42.068;24.752;2023-02-28T04:29:04;25.15;;;14.80;;
70342;SDS011;57767;42.068;24.752;2023-02-28T04:30:07;28.42;;;14.80;;
70342;SDS011;57767;42.068;24.752;2023-02-28T04:31:09;31.02;;;13.95;;
70342;SDS011;57767;42.068;24.752;2023-02-28T04:32:12;22.02;;;13.82;;
70342;SDS011;57767;42.068;24.752;2023-02-28T04:33:14;29.25;;;15.63;;
70342;SDS011;57767;42.068;24.752;2023-02-28T04:34:16;25.90;;;14.88;;
70342;SDS011;57767;42.068;24.752;2023-02-28T04:35:20;23.63;;;14.15;;
70342;SDS011;57767;42.068;24.752;2023-02-28T04:36:21;28.42;;;15.65;;
70342;SDS011;57767;42.068;24.752;2023-02-28T04:37:24;27.42;;;14.77;;
70342;SDS011;57767;42.068;24.752;2023-02-28T04:38:32;26.67;;;14.70;;
70342;SDS011;57767;42.068;24.752;2023-02-28T04:39:36;29.00;;;15.38;;
70342;SDS011;57767;42.068;24.752;2023-02-28T04:40:38;29.27;;;17.00;;
70342;SDS011;57767;42.068;24.752;2023-02-28T04:41:39;26.98;;;16.88;;
70342;SDS011;57767;42.068;24.752;2023-02-28T04:42:41;27.38;;;15.55;;
70342;SDS011;57767;42.068;24.752;2023-02-28T04:43:43;25.92;;;15.98;;
70342;SDS011;57767;42.068;24.752;2023-02-28T04:44:45;27.92;;;16.05;;
70342;SDS011;57767;42.068;24.752;2023-02-28T04:45:46;29.05;;;16.30;;
70342;SDS011;57767;42.068;24.752;2023-02-28T04:46:48;29.20;;;16.17;;
70342;SDS011;57767;42.068;24.752;2023-02-28T04:47:51;23.10;;;14.30;;
70342;SDS011;57767;42.068;24.752;2023-02-28T04:48:53;24.23;;;14.52;;
70342;SDS011;57767;42.068;24.752;2023-02-28T04:49:55;27.05;;;15.05;;
70342;SDS011;57767;42.068;24.752;2023-02-28T04:51:04;30.13;;;15.90;;
70342;SDS011;57767;42.068;24.752;2023-02-28T04:52:08;25.50;;;15.85;;
70342;SDS011;57767;42.068;24.752;2023-02-28T04:53:11;32.45;;;16.67;;
70342;SDS011;57767;42.068;24.752;2023-02-28T04:54:13;26.55;;;15.93;;
70342;SDS011;57767;42.068;24.752;2023-02-28T04:55:14;25.58;;;15.18;;
70342;SDS011;57767;42.068;24.752;2023-02-28T04:56:17;24.73;;;15.82;;
70342;SDS011;57767;42.068;24.752;2023-02-28T04:57:19;28.02;;;16.80;;
70342;SDS011;57767;42.068;24.752;2023-02-28T04:58:21;24.25;;;15.25;;
70342;SDS011;57767;42.068;24.752;2023-02-28T04:59:26;26.65;;;15.48;;
70342;SDS011;57767;42.068;24.752;2023-02-28T05:00:27;27.02;;;15.80;;
70342;SDS011;57767;42.068;24.752;2023-02-28T05:01:30;27.25;;;15.93;;
70342;SDS011;57767;42.068;24.752;2023-02-28T05:02:34;29.75;;;16.13;;
70342;SDS011;57767;42.068;24.752;2023-02-28T05:03:36;24.92;;;14.73;;
70342;SDS011;57767;42.068;24.752;2023-02-28T05:04:38;23.77;;;15.52;;
70342;SDS011;57767;42.068;24.752;2023-02-28T05:05:40;25.42;;;15.68;;
70342;SDS011;57767;42.068;24.752;2023-02-28T05:06:41;25.77;;;14.68;;
70342;SDS011;57767;42.068;24.752;2023-02-28T05:07:44;29.90;;;14.77;;
70342;SDS011;57767;42.068;24.752;2023-02-28T05:08:46;21.20;;;13.75;;
70342;SDS011;57767;42.068;24.752;2023-02-28T05:09:48;26.52;;;14.23;;
70342;SDS011;57767;42.068;24.752;2023-02-28T05:10:49;22.02;;;13.98;;
70342;SDS011;57767;42.068;24.752;2023-02-28T05:11:51;25.48;;;15.10;;
70342;SDS011;57767;42.068;24.752;2023-02-28T05:12:53;26.00;;;15.25;;
70342;SDS011;57767;42.068;24.752;2023-02-28T05:13:55;25.77;;;15.30;;
70342;SDS011;57767;42.068;24.752;2023-02-28T05:14:57;25.25;;;15.40;;
70342;SDS011;57767;42.068;24.752;2023-02-28T05:15:58;25.27;;;15.60;;
70342;SDS011;57767;42.068;24.752;2023-02-28T05:17:00;26.58;;;15.35;;
70342;SDS011;57767;42.068;24.752;2023-02-28T05:18:02;25.70;;;15.32;;
70342;SDS011;57767;42.068;24.752;2023-02-28T05:19:04;29.08;;;14.48;;
70342;SDS011;57767;42.068;24.752;2023-02-28T05:20:06;22.60;;;13.20;;
70342;SDS011;57767;42.068;24.752;2023-02-28T05:21:29;25.65;;;14.48;;
70342;SDS011;57767;42.068;24.752;2023-02-28T05:22:42;21.42;;;13.63;;
70342;SDS011;57767;42.068;24.752;2023-02-28T05:23:44;23.13;;;14.40;;
70342;SDS011;57767;42.068;24.752;2023-02-28T05:24:48;26.60;;;14.65;;
70342;SDS011;57767;42.068;24.752;2023-02-28T05:25:50;24.00;;;15.05;;
70342;SDS011;57767;42.068;24.752;2023-02-28T05:26:53;20.30;;;13.50;;
70342;SDS011;57767;42.068;24.752;2023-02-28T05:27:56;23.92;;;13.55;;
70342;SDS011;57767;42.068;24.752;2023-02-28T05:28:57;22.63;;;13.93;;
70342;SDS011;57767;42.068;24.752;2023-02-28T05:29:59;23.75;;;14.38;;
70342;SDS011;57767;42.068;24.752;2023-02-28T05:31:04;23.67;;;13.95;;
70342;SDS011;57767;42.068;24.752;2023-02-28T05:32:05;24.70;;;14.77;;
70342;SDS011;57767;42.068;24.752;2023-02-28T05:33:09;22.95;;;13.40;;
70342;SDS011;57767;42.068;24.752;2023-02-28T05:34:12;20.15;;;13.60;;
70342;SDS011;57767;42.068;24.752;2023-02-28T05:35:16;24.77;;;14.65;;
70342;SDS011;57767;42.068;24.752;2023-02-28T05:36:18;26.92;;;14.38;;
70342;SDS011;57767;42.068;24.752;2023-02-28T05:37:21;22.75;;;14.73;;
70342;SDS011;57767;42.068;24.752;2023-02-28T05:38:23;26.98;;;15.10;;
70342;SDS011;57767;42.068;24.752;2023-02-28T05:39:24;24.33;;;14.88;;
70342;SDS011;57767;42.068;24.752;2023-02-28T05:40:26;26.73;;;15.18;;
70342;SDS011;57767;42.068;24.752;2023-02-28T05:41:28;27.92;;;15.57;;
70342;SDS011;57767;42.068;24.752;2023-02-28T05:42:30;22.23;;;14.57;;
70342;SDS011;57767;42.068;24.752;2023-02-28T05:43:32;20.98;;;14.02;;
70342;SDS011;57767;42.068;24.752;2023-02-28T05:44:34;22.17;;;13.98;;
70342;SDS011;57767;42.068;24.752;2023-02-28T05:45:37;21.85;;;14.55;;
70342;SDS011;57767;42.068;24.752;2023-02-28T05:46:39;20.85;;;13.63;;
70342;SDS011;57767;42.068;24.752;2023-02-28T05:47:40;21.30;;;12.93;;
70342;SDS011;57767;42.068;24.752;2023-02-28T05:48:42;23.23;;;14.27;;
70342;SDS011;57767;42.068;24.752;2023-02-28T05:49:47;21.70;;;12.43;;
70342;SDS011;57767;42.068;24.752;2023-02-28T05:50:49;21.02;;;13.32;;
70342;SDS011;57767;42.068;24.752;2023-02-28T05:51:50;20.33;;;13.15;;
70342;SDS011;57767;42.068;24.752;2023-02-28T05:52:52;26.70;;;12.95;;
70342;SDS011;57767;42.068;24.752;2023-02-28T05:53:54;19.77;;;11.10;;
70342;SDS011;57767;42.068;24.752;2023-02-28T05:54:56;25.33;;;11.73;;
70342;SDS011;57767;42.068;24.752;2023-02-28T05:55:58;21.40;;;12.48;;
70342;SDS011;57767;42.068;24.752;2023-02-28T05:57:00;24.73;;;12.70;;
70342;SDS011;57767;42.068;24.752;2023-02-28T05:58:01;19.20;;;12.70;;
70342;SDS011;57767;42.068;24.752;2023-02-28T05:59:03;23.95;;;13.88;;
70342;SDS011;57767;42.068;24.752;2023-02-28T06:00:05;24.23;;;11.75;;
70342;SDS011;57767;42.068;24.752;2023-02-28T06:01:24;21.85;;;12.90;;
70342;SDS011;57767;42.068;24.752;2023-02-28T06:02:32;25.05;;;12.07;;
70342;SDS011;57767;42.068;24.752;2023-02-28T06:03:34;25.63;;;13.40;;
70342;SDS011;57767;42.068;24.752;2023-02-28T06:04:36;26.52;;;14.00;;
70342;SDS011;57767;42.068;24.752;2023-02-28T06:05:37;18.73;;;10.48;;
70342;SDS011;57767;42.068;24.752;2023-02-28T06:06:39;22.35;;;11.52;;
70342;SDS011;57767;42.068;24.752;2023-02-28T06:07:41;19.90;;;11.75;;
70342;SDS011;57767;42.068;24.752;2023-02-28T06:08:44;24.85;;;13.52;;
70342;SDS011;57767;42.068;24.752;2023-02-28T06:09:46;18.48;;;11.05;;
70342;SDS011;57767;42.068;24.752;2023-02-28T06:10:48;25.73;;;13.25;;
70342;SDS011;57767;42.068;24.752;2023-02-28T06:11:50;17.90;;;10.77;;
70342;SDS011;57767;42.068;24.752;2023-02-28T06:12:52;24.80;;;13.80;;
70342;SDS011;57767;42.068;24.752;2023-02-28T06:13:54;19.00;;;11.60;;
70342;SDS011;57767;42.068;24.752;2023-02-28T06:15:01;21.25;;;12.65;;
70342;SDS011;57767;42.068;24.752;2023-02-28T06:16:02;23.40;;;12.15;;
70342;SDS011;57767;42.068;24.752;2023-02-28T06:17:04;20.35;;;11.88;;
70342;SDS011;57767;42.068;24.752;2023-02-28T06:18:06;28.38;;;13.45;;
70342;SDS011;57767;42.068;24.752;2023-02-28T06:19:08;23.52;;;11.65;;
70342;SDS011;57767;42.068;24.752;2023-02-28T06:20:11;22.42;;;14.18;;
70342;SDS011;57767;42.068;24.752;2023-02-28T06:21:14;25.50;;;12.07;;
70342;SDS011;57767;42.068;24.752;2023-02-28T06:22:15;27.35;;;12.13;;
70342;SDS011;57767;42.068;24.752;2023-02-28T06:23:17;25.20;;;15.70;;
70342;SDS011;57767;42.068;24.752;2023-02-28T06:24:20;26.17;;;14.68;;
70342;SDS011;57767;42.068;24.752;2023-02-28T06:25:22;24.33;;;12.43;;
70342;SDS011;57767;42.068;24.752;2023-02-28T06:26:24;26.88;;;15.23;;
70342;SDS011;57767;42.068;24.752;2023-02-28T06:27:26;30.83;;;14.75;;
70342;SDS011;57767;42.068;24.752;2023-02-28T06:28:28;23.75;;;12.68;;
70342;SDS011;57767;42.068;24.752;2023-02-28T06:29:33;23.45;;;12.48;;
70342;SDS011;57767;42.068;24.752;2023-02-28T06:30:36;28.55;;;15.45;;
70342;SDS011;57767;42.068;24.752;2023-02-28T06:31:39;24.65;;;13.10;;
70342;SDS011;57767;42.068;24.752;2023-02-28T06:32:41;24.13;;;12.55;;
70342;SDS011;57767;42.068;24.752;2023-02-28T06:33:43;29.40;;;15.48;;
70342;SDS011;57767;42.068;24.752;2023-02-28T06:34:46;27.30;;;16.63;;
70342;SDS011;57767;42.068;24.752;2023-02-28T06:35:51;23.05;;;15.90;;
70342;SDS011;57767;42.068;24.752;2023-02-28T06:36:53;25.52;;;12.57;;
70342;SDS011;57767;42.068;24.752;2023-02-28T06:37:55;25.02;;;16.65;;
70342;SDS011;57767;42.068;24.752;2023-02-28T06:38:56;26.83;;;17.20;;
70342;SDS011;57767;42.068;24.752;2023-02-28T06:39:59;26.33;;;13.18;;
70342;SDS011;57767;42.068;24.752;2023-02-28T06:41:00;22.92;;;13.35;;
70342;SDS011;57767;42.068;24.752;2023-02-28T06:42:03;27.80;;;14.73;;
70342;SDS011;57767;42.068;24.752;2023-02-28T06:43:04;27.55;;;14.95;;
70342;SDS011;57767;42.068;24.752;2023-02-28T06:44:16;21.83;;;13.75;;
70342;SDS011;57767;42.068;24.752;2023-02-28T06:45:18;28.88;;;17.75;;
70342;SDS011;57767;42.068;24.752;2023-02-28T06:46:20;34.00;;;18.85;;
70342;SDS011;57767;42.068;24.752;2023-02-28T06:47:23;29.38;;;18.45;;
70342;SDS011;57767;42.068;24.752;2023-02-28T06:48:25;26.55;;;15.13;;
70342;SDS011;57767;42.068;24.752;2023-02-28T06:49:29;29.40;;;17.65;;
70342;SDS011;57767;42.068;24.752;2023-02-28T06:50:31;33.25;;;15.90;;
70342;SDS011;57767;42.068;24.752;2023-02-28T06:51:34;29.00;;;16.05;;
70342;SDS011;57767;42.068;24.752;2023-02-28T06:52:37;36.10;;;17.13;;
70342;SDS011;57767;42.068;24.752;2023-02-28T06:53:39;36.72;;;20.10;;
70342;SDS011;57767;42.068;24.752;2023-02-28T06:54:41;24.15;;;15.10;;
70342;SDS011;57767;42.068;24.752;2023-02-28T06:55:43;33.13;;;17.52;;
70342;SDS011;57767;42.068;24.752;2023-02-28T06:56:45;30.80;;;17.98;;
70342;SDS011;57767;42.068;24.752;2023-02-28T06:57:48;28.17;;;15.93;;